createdAt,value
2019-03-11T00:00:16.094Z,96.24
2019-03-11T00:01:16.066Z,96.80
2019-03-11T00:02:16.045Z,96.76
2019-03-11T00:03:16.035Z,97.28
2019-03-11T00:04:16.875Z,96.86
2019-03-11T00:05:16.027Z,96.76
2019-03-11T00:06:16.040Z,96.76
2019-03-11T00:07:16.005Z,97.17
2019-03-11T00:08:15.981Z,97.33
2019-03-11T00:09:15.961Z,97.28
2019-03-11T00:10:15.955Z,97.28
2019-03-11T00:11:15.947Z,97.28
2019-03-11T00:12:15.972Z,96.97
2019-03-11T00:13:15.922Z,97.12
2019-03-11T00:14:15.912Z,97.53
2019-03-11T00:15:15.955Z,97.59
2019-03-11T00:16:15.884Z,97.28
2019-03-11T00:17:15.882Z,97.43
2019-03-11T00:18:15.895Z,97.38
2019-03-11T00:19:15.859Z,97.38
2019-03-11T00:20:15.855Z,97.07
2019-03-11T00:21:15.832Z,97.53
2019-03-11T00:22:15.840Z,97.38
2019-03-11T00:23:15.842Z,97.22
2019-03-11T00:24:15.813Z,97.38
2019-03-11T00:25:15.816Z,96.91
2019-03-11T00:26:15.805Z,97.59
2019-03-11T00:27:15.778Z,97.17
2019-03-11T00:28:15.764Z,96.80
2019-03-11T00:29:15.774Z,97.17
2019-03-11T00:30:15.758Z,96.86
2019-03-11T00:31:15.735Z,96.97
2019-03-11T00:32:15.737Z,96.34
2019-03-11T00:33:15.710Z,96.24
2019-03-11T00:34:15.705Z,96.28
2019-03-11T00:35:15.709Z,96.34
2019-03-11T00:36:15.681Z,96.14
2019-03-11T00:37:15.701Z,96.34
2019-03-11T00:38:15.658Z,96.49
2019-03-11T00:39:15.640Z,96.24
2019-03-11T00:40:15.657Z,96.39
2019-03-11T00:41:15.651Z,96.34
2019-03-11T00:42:15.618Z,96.66
2019-03-11T00:43:15.609Z,96.59
2019-03-11T00:44:15.588Z,96.55
2019-03-11T00:45:15.604Z,96.24
2019-03-11T00:46:15.592Z,96.08
2019-03-11T00:47:15.561Z,96.08
2019-03-11T00:48:15.543Z,95.97
2019-03-11T00:49:15.537Z,95.76
2019-03-11T00:50:15.522Z,96.28
2019-03-11T00:51:15.514Z,95.66
2019-03-11T00:52:15.548Z,95.56
2019-03-11T00:53:15.509Z,95.66
2019-03-11T00:54:15.501Z,95.66
2019-03-11T00:55:15.482Z,94.82
2019-03-11T00:56:15.471Z,94.72
2019-03-11T00:57:15.456Z,94.93
2019-03-11T00:58:15.477Z,94.82
2019-03-11T00:59:15.429Z,94.72
2019-03-11T01:00:15.421Z,94.93
2019-03-11T01:01:15.429Z,94.62
2019-03-11T01:02:15.406Z,94.93
2019-03-11T01:03:15.403Z,94.72
2019-03-11T01:04:15.409Z,94.62
2019-03-11T01:05:15.373Z,94.66
2019-03-11T01:06:15.360Z,95.03
2019-03-11T01:07:15.355Z,94.45
2019-03-11T01:08:15.347Z,94.45
2019-03-11T01:09:15.331Z,94.31
2019-03-11T01:10:15.377Z,94.56
2019-03-11T01:11:15.319Z,94.45
2019-03-11T01:12:15.296Z,94.35
2019-03-11T01:13:15.279Z,94.87
2019-03-11T01:14:15.273Z,94.87
2019-03-11T01:15:15.291Z,94.66
2019-03-11T01:16:15.251Z,94.56
2019-03-11T01:17:15.252Z,93.93
2019-03-11T01:18:15.230Z,94.76
2019-03-11T01:19:15.218Z,94.87
2019-03-11T01:20:15.201Z,95.12
2019-03-11T01:21:15.216Z,94.98
2019-03-11T01:22:15.188Z,95.12
2019-03-11T01:23:15.181Z,95.12
2019-03-11T01:24:15.157Z,94.60
2019-03-11T01:25:15.171Z,94.49
2019-03-11T01:26:15.174Z,95.12
2019-03-11T01:27:15.126Z,95.23
2019-03-11T01:28:15.126Z,95.08
2019-03-11T01:29:15.160Z,95.02
2019-03-11T01:30:15.098Z,95.12
2019-03-11T01:31:15.142Z,95.18
2019-03-11T01:32:15.108Z,95.60
2019-03-11T01:33:15.068Z,95.12
2019-03-11T01:34:15.060Z,95.54
2019-03-11T01:35:15.047Z,95.43
2019-03-11T01:36:15.035Z,95.54
2019-03-11T01:37:15.027Z,96.06
2019-03-11T01:38:15.046Z,96.79
2019-03-11T01:39:15.005Z,95.85
2019-03-11T01:40:14.994Z,96.69
2019-03-11T01:41:14.997Z,96.69
2019-03-11T01:42:14.965Z,97.20
2019-03-11T01:43:14.967Z,96.89
2019-03-11T01:44:14.959Z,97.10
2019-03-11T01:45:14.932Z,97.35
2019-03-11T01:46:14.930Z,97.14
2019-03-11T01:47:14.975Z,97.04
2019-03-11T01:48:14.917Z,97.35
2019-03-11T01:49:14.918Z,97.25
2019-03-11T01:50:14.883Z,97.46
2019-03-11T01:51:14.871Z,97.98
2019-03-11T01:52:14.877Z,97.88
2019-03-11T01:53:14.845Z,98.08
2019-03-11T01:54:14.848Z,98.19
2019-03-11T01:55:14.852Z,98.60
2019-03-11T01:56:14.811Z,98.39
2019-03-11T01:57:14.806Z,98.39
2019-03-11T01:58:14.805Z,98.39
2019-03-11T01:59:14.786Z,98.39
2019-03-11T02:00:14.770Z,98.65
2019-03-11T02:01:14.807Z,98.44
2019-03-11T02:02:14.743Z,98.34
2019-03-11T02:03:14.737Z,98.44
2019-03-11T02:04:14.734Z,98.23
2019-03-11T02:05:14.711Z,98.55
2019-03-11T02:06:14.721Z,98.55
2019-03-11T02:07:14.688Z,98.55
2019-03-11T02:08:14.688Z,98.34
2019-03-11T02:09:14.676Z,98.96
2019-03-11T02:10:14.693Z,98.65
2019-03-11T02:11:14.667Z,99.17
2019-03-11T02:12:14.660Z,99.38
2019-03-11T02:13:14.631Z,99.48
2019-03-11T02:14:14.625Z,99.38
2019-03-11T02:15:14.611Z,99.27
2019-03-11T02:16:14.613Z,98.86
2019-03-11T02:17:14.581Z,99.38
2019-03-11T02:18:14.583Z,99.48
2019-03-11T02:19:14.566Z,99.38
2019-03-11T02:20:14.557Z,99.38
2019-03-11T02:21:14.560Z,99.48
2019-03-11T02:22:14.537Z,99.48
2019-03-11T02:23:14.523Z,99.22
2019-03-11T02:24:14.520Z,99.38
2019-03-11T02:25:14.495Z,99.32
2019-03-11T02:26:14.504Z,99.32
2019-03-11T02:27:14.490Z,99.48
2019-03-11T02:28:14.524Z,99.48
2019-03-11T02:29:14.450Z,99.59
2019-03-11T02:30:14.444Z,99.84
2019-03-11T02:31:14.461Z,99.48
2019-03-11T02:32:14.423Z,99.59
2019-03-11T02:33:14.429Z,99.38
2019-03-11T02:34:14.415Z,99.63
2019-03-11T02:35:14.418Z,99.53
2019-03-11T02:36:14.377Z,98.90
2019-03-11T02:37:14.395Z,99.17
2019-03-11T02:38:14.363Z,98.65
2019-03-11T02:39:14.345Z,98.02
2019-03-11T02:40:14.351Z,98.55
2019-03-11T02:41:14.322Z,98.18
2019-03-11T02:42:14.352Z,98.28
2019-03-11T02:43:14.302Z,98.59
2019-03-11T02:44:14.295Z,98.38
2019-03-11T02:45:14.280Z,98.44
2019-03-11T02:46:14.309Z,98.65
2019-03-11T02:47:14.269Z,98.75
2019-03-11T02:48:14.277Z,98.49
2019-03-11T02:49:14.240Z,98.44
2019-03-11T02:50:14.226Z,98.55
2019-03-11T02:51:14.226Z,98.23
2019-03-11T02:52:14.256Z,98.65
2019-03-11T02:53:14.205Z,98.44
2019-03-11T02:54:14.228Z,98.55
2019-03-11T02:55:14.184Z,98.86
2019-03-11T02:56:14.161Z,98.59
2019-03-11T02:57:14.154Z,98.44
2019-03-11T02:58:14.137Z,98.34
2019-03-11T02:59:14.130Z,98.34
2019-03-11T03:00:14.204Z,98.96
2019-03-11T03:01:15.060Z,98.55
2019-03-11T03:02:14.101Z,97.92
2019-03-11T03:03:14.088Z,98.55
2019-03-11T03:04:14.086Z,98.55
2019-03-11T03:05:14.076Z,98.65
2019-03-11T03:06:14.082Z,98.55
2019-03-11T03:07:14.044Z,98.34
2019-03-11T03:08:14.032Z,98.55
2019-03-11T03:09:14.019Z,98.65
2019-03-11T03:10:14.017Z,98.65
2019-03-11T03:11:14.056Z,98.44
2019-03-11T03:12:14.016Z,98.02
2019-03-11T03:13:13.978Z,98.44
2019-03-11T03:14:13.983Z,98.55
2019-03-11T03:15:13.970Z,98.29
2019-03-11T03:16:13.937Z,98.44
2019-03-11T03:17:13.948Z,98.34
2019-03-11T03:18:13.934Z,98.50
2019-03-11T03:19:13.922Z,98.44
2019-03-11T03:20:13.903Z,98.55
2019-03-11T03:21:13.889Z,98.23
2019-03-11T03:22:13.889Z,98.55
2019-03-11T03:23:14.002Z,98.13
2019-03-11T03:24:13.858Z,98.55
2019-03-11T03:25:13.863Z,98.34
2019-03-11T03:26:13.840Z,98.55
2019-03-11T03:27:13.848Z,98.75
2019-03-11T03:28:13.833Z,98.44
2019-03-11T03:29:13.839Z,98.44
2019-03-11T03:30:13.806Z,98.44
2019-03-11T03:31:13.780Z,98.44
2019-03-11T03:32:13.773Z,98.34
2019-03-11T03:33:13.756Z,99.17
2019-03-11T03:34:13.753Z,98.34
2019-03-11T03:35:13.780Z,98.80
2019-03-11T03:36:13.752Z,99.48
2019-03-11T03:37:13.727Z,99.53
2019-03-11T03:38:28.840Z,99.53
2019-03-11T03:39:14.694Z,99.17
2019-03-11T03:40:13.695Z,99.07
2019-03-11T03:41:13.697Z,99.38
2019-03-11T03:42:14.007Z,99.48
2019-03-11T03:43:13.646Z,99.99
2019-03-11T03:44:13.661Z,99.99
2019-03-11T03:45:13.677Z,99.99
2019-03-11T03:46:19.324Z,99.99
2019-03-11T03:47:14.635Z,99.84
2019-03-11T03:48:13.603Z,99.95
2019-03-11T03:49:13.588Z,99.84
2019-03-11T03:50:13.585Z,99.84
2019-03-11T03:51:13.575Z,99.63
2019-03-11T03:52:13.561Z,99.99
2019-03-11T03:53:13.562Z,99.99
2019-03-11T03:54:13.541Z,99.99
2019-03-11T03:55:13.525Z,99.99
2019-03-11T03:56:13.516Z,99.99
2019-03-11T03:57:13.502Z,99.99
2019-03-11T03:58:13.517Z,99.99
2019-03-11T03:59:13.476Z,99.99
2019-03-11T04:00:13.471Z,99.90
2019-03-11T04:01:13.454Z,99.99
2019-03-11T04:02:13.447Z,99.99
2019-03-11T04:03:13.436Z,99.99
2019-03-11T04:04:13.457Z,99.99
2019-03-11T04:05:13.411Z,99.99
2019-03-11T04:06:13.421Z,99.99
2019-03-11T04:07:13.387Z,99.90
2019-03-11T04:08:13.403Z,99.99
2019-03-11T04:09:13.381Z,99.99
2019-03-11T04:10:13.367Z,99.99
2019-03-11T04:11:13.349Z,99.99
2019-03-11T04:12:13.341Z,99.99
2019-03-11T04:13:13.327Z,99.99
2019-03-11T04:14:13.334Z,99.99
2019-03-11T04:15:13.327Z,99.99
2019-03-11T04:16:13.295Z,99.99
2019-03-11T04:17:13.286Z,99.99
2019-03-11T04:18:13.320Z,99.99
2019-03-11T04:19:13.298Z,99.90
2019-03-11T04:20:13.261Z,99.99
2019-03-11T04:21:13.261Z,99.99
2019-03-11T04:22:13.222Z,99.99
2019-03-11T04:23:13.265Z,99.99
2019-03-11T04:24:13.200Z,99.99
2019-03-11T04:25:13.193Z,99.99
2019-03-11T04:26:13.199Z,99.99
2019-03-11T04:27:13.172Z,99.99
2019-03-11T04:28:13.163Z,99.99
2019-03-11T04:29:13.179Z,99.99
2019-03-11T04:30:13.143Z,99.99
2019-03-11T04:31:13.132Z,99.99
2019-03-11T04:32:13.131Z,99.99
2019-03-11T04:33:13.109Z,99.99
2019-03-11T04:34:13.092Z,99.99
2019-03-11T04:35:13.127Z,99.99
2019-03-11T04:36:13.116Z,99.99
2019-03-11T04:37:13.071Z,99.99
2019-03-11T04:38:13.058Z,99.99
2019-03-11T04:39:13.038Z,99.99
2019-03-11T04:40:13.068Z,99.99
2019-03-11T04:41:13.030Z,99.99
2019-03-11T04:42:13.060Z,99.99
2019-03-11T04:43:13.037Z,99.99
2019-03-11T04:44:13.007Z,99.99
2019-03-11T04:45:13.030Z,99.99
2019-03-11T04:46:12.996Z,99.99
2019-03-11T04:47:12.961Z,99.99
2019-03-11T04:48:12.965Z,99.99
2019-03-11T04:49:12.953Z,99.99
2019-03-11T04:50:12.933Z,99.99
2019-03-11T04:51:12.949Z,99.99
2019-03-11T04:52:12.914Z,99.99
2019-03-11T04:53:12.890Z,99.99
2019-03-11T04:54:12.887Z,99.99
2019-03-11T04:55:12.885Z,99.99
2019-03-11T04:56:12.863Z,99.99
2019-03-11T04:57:12.902Z,99.99
2019-03-11T04:58:12.863Z,99.99
2019-03-11T04:59:12.824Z,99.99
2019-03-11T05:00:12.828Z,99.99
2019-03-11T05:01:12.803Z,99.99
2019-03-11T05:02:12.800Z,99.99
2019-03-11T05:03:12.811Z,99.99
2019-03-11T05:04:12.790Z,99.99
2019-03-11T05:05:12.769Z,99.99
2019-03-11T05:06:12.759Z,99.99
2019-03-11T05:07:12.747Z,99.99
2019-03-11T05:08:12.758Z,99.99
2019-03-11T05:09:12.728Z,99.99
2019-03-11T05:10:12.745Z,99.99
2019-03-11T05:11:12.704Z,99.99
2019-03-11T05:12:12.691Z,99.99
2019-03-11T05:13:12.680Z,99.99
2019-03-11T05:14:12.702Z,99.99
2019-03-11T05:15:12.673Z,99.99
2019-03-11T05:16:12.650Z,99.99
2019-03-11T05:17:12.641Z,99.99
2019-03-11T05:18:12.623Z,99.99
2019-03-11T05:19:12.644Z,99.99
2019-03-11T05:20:12.604Z,99.99
2019-03-11T05:21:12.611Z,99.99
2019-03-11T05:22:12.590Z,99.99
2019-03-11T05:23:12.591Z,99.99
2019-03-11T05:24:12.565Z,99.99
2019-03-11T05:25:12.587Z,99.99
2019-03-11T05:26:12.556Z,99.99
2019-03-11T05:27:12.528Z,99.99
2019-03-11T05:28:12.547Z,99.99
2019-03-11T05:29:12.510Z,99.99
2019-03-11T05:30:12.501Z,99.99
2019-03-11T05:31:12.504Z,99.99
2019-03-11T05:32:12.504Z,99.99
2019-03-11T05:33:12.524Z,99.99
2019-03-11T05:34:12.477Z,99.99
2019-03-11T05:35:12.483Z,99.99
2019-03-11T05:36:12.462Z,99.99
2019-03-11T05:37:12.437Z,99.99
2019-03-11T05:38:12.868Z,99.99
2019-03-11T05:39:12.407Z,99.99
2019-03-11T05:40:12.410Z,99.99
2019-03-11T05:41:12.396Z,99.99
2019-03-11T05:42:12.404Z,99.99
2019-03-11T05:43:12.365Z,99.99
2019-03-11T05:44:12.359Z,99.99
2019-03-11T05:45:12.344Z,99.99
2019-03-11T05:46:12.342Z,99.99
2019-03-11T05:47:12.325Z,99.99
2019-03-11T05:48:12.335Z,99.99
2019-03-11T05:49:12.299Z,99.99
2019-03-11T05:50:12.285Z,99.99
2019-03-11T05:51:12.283Z,99.99
2019-03-11T05:52:12.267Z,99.99
2019-03-11T05:53:12.260Z,99.99
2019-03-11T05:54:12.271Z,99.99
2019-03-11T05:55:12.244Z,99.99
2019-03-11T05:56:12.233Z,99.99
2019-03-11T05:57:12.228Z,99.99
2019-03-11T05:58:12.232Z,99.99
2019-03-11T05:59:12.205Z,99.99
2019-03-11T06:00:12.210Z,99.99
2019-03-11T06:01:12.171Z,99.99
2019-03-11T06:02:12.182Z,99.99
2019-03-11T06:03:12.166Z,99.99
2019-03-11T06:04:12.144Z,99.99
2019-03-11T06:05:12.159Z,99.99
2019-03-11T06:06:12.127Z,99.99
2019-03-11T06:07:12.116Z,99.99
2019-03-11T06:08:12.121Z,99.99
2019-03-11T06:09:12.105Z,99.99
2019-03-11T06:10:12.113Z,99.99
2019-03-11T06:11:12.088Z,99.99
2019-03-11T06:12:12.058Z,99.99
2019-03-11T06:13:12.043Z,99.99
2019-03-11T06:14:12.038Z,99.99
2019-03-11T06:15:12.036Z,99.99
2019-03-11T06:16:12.055Z,99.99
2019-03-11T06:17:12.005Z,99.99
2019-03-11T06:18:12.001Z,99.99
2019-03-11T06:19:11.996Z,99.99
2019-03-11T06:20:11.973Z,99.99
2019-03-11T06:21:11.966Z,99.99
2019-03-11T06:22:11.975Z,99.99
2019-03-11T06:23:11.936Z,99.99
2019-03-11T06:24:11.927Z,99.99
2019-03-11T06:25:11.914Z,99.99
2019-03-11T06:26:11.903Z,99.99
2019-03-11T06:27:11.907Z,99.99
2019-03-11T06:28:11.907Z,99.99
2019-03-11T06:29:11.884Z,99.99
2019-03-11T06:30:11.874Z,99.99
2019-03-11T06:31:11.857Z,99.99
2019-03-11T06:32:11.843Z,99.99
2019-03-11T06:33:11.860Z,99.99
2019-03-11T06:34:11.821Z,99.99
2019-03-11T06:35:11.806Z,99.99
2019-03-11T06:36:11.805Z,99.99
2019-03-11T06:37:11.785Z,99.99
2019-03-11T06:38:11.781Z,99.99
2019-03-11T06:39:11.788Z,99.99
2019-03-11T06:40:11.757Z,99.99
2019-03-11T06:41:11.745Z,99.99
2019-03-11T06:42:11.756Z,99.99
2019-03-11T06:43:11.729Z,99.99
2019-03-11T06:44:11.728Z,99.99
2019-03-11T06:45:11.720Z,99.99
2019-03-11T06:46:11.684Z,99.99
2019-03-11T06:47:11.679Z,99.99
2019-03-11T06:48:11.665Z,99.99
2019-03-11T06:49:11.658Z,99.99
2019-03-11T06:50:11.656Z,99.99
2019-03-11T06:51:11.651Z,99.99
2019-03-11T06:52:11.631Z,99.99
2019-03-11T06:53:11.617Z,99.99
2019-03-11T06:54:11.606Z,99.99
2019-03-11T06:55:11.607Z,99.99
2019-03-11T06:56:11.597Z,99.99
2019-03-11T06:57:12.724Z,99.99
2019-03-11T06:58:11.562Z,99.99
2019-03-11T06:59:11.557Z,99.99
2019-03-11T07:00:11.553Z,99.99
2019-03-11T07:01:11.551Z,99.99
2019-03-11T07:02:11.526Z,99.99
2019-03-11T07:03:11.501Z,99.99
2019-03-11T07:04:11.496Z,99.91
2019-03-11T07:05:20.011Z,99.99
2019-03-11T07:06:12.474Z,99.81
2019-03-11T07:07:11.464Z,99.99
2019-03-11T07:08:11.457Z,99.91
2019-03-11T07:09:11.483Z,99.71
2019-03-11T07:10:11.486Z,99.99
2019-03-11T07:11:11.437Z,99.91
2019-03-11T07:12:11.407Z,99.99
2019-03-11T07:13:11.397Z,99.71
2019-03-11T07:14:11.416Z,99.71
2019-03-11T07:15:11.405Z,99.71
2019-03-11T07:16:11.387Z,99.81
2019-03-11T07:17:11.353Z,99.99
2019-03-11T07:18:11.343Z,99.99
2019-03-11T07:19:11.349Z,99.99
2019-03-11T07:20:11.320Z,99.71
2019-03-11T07:21:11.333Z,99.81
2019-03-11T07:22:11.304Z,99.71
2019-03-11T07:23:11.286Z,99.50
2019-03-11T07:24:11.278Z,99.29
2019-03-11T07:25:11.324Z,99.08
2019-03-11T07:26:11.273Z,99.29
2019-03-11T07:27:11.279Z,99.55
2019-03-11T07:28:11.227Z,99.24
2019-03-11T07:29:11.217Z,99.35
2019-03-11T07:30:11.210Z,99.35
2019-03-11T07:31:11.209Z,99.35
2019-03-11T07:32:11.225Z,99.24
2019-03-11T07:33:11.184Z,98.62
2019-03-11T07:34:11.206Z,98.41
2019-03-11T07:35:11.158Z,98.20
2019-03-11T07:36:11.144Z,98.20
2019-03-11T07:37:11.181Z,98.52
2019-03-11T07:38:11.216Z,98.62
2019-03-11T07:39:11.135Z,98.31
2019-03-11T07:40:11.098Z,98.10
2019-03-11T07:41:11.093Z,97.99
2019-03-11T07:42:11.086Z,97.89
2019-03-11T07:43:11.097Z,98.20
2019-03-11T07:44:11.062Z,97.89
2019-03-11T07:45:11.054Z,98.20
2019-03-11T07:46:11.087Z,97.78
2019-03-11T07:47:11.045Z,97.47
2019-03-11T07:48:11.020Z,97.27
2019-03-11T07:49:11.067Z,97.37
2019-03-11T07:50:11.005Z,97.27
2019-03-11T07:51:10.990Z,96.85
2019-03-11T07:52:10.982Z,97.27
2019-03-11T07:53:10.956Z,96.95
2019-03-11T07:54:10.959Z,96.75
2019-03-11T07:55:10.993Z,96.80
2019-03-11T07:56:10.981Z,97.27
2019-03-11T07:57:11.305Z,97.12
2019-03-11T07:58:10.936Z,97.22
2019-03-11T07:59:10.895Z,96.70
2019-03-11T08:00:10.901Z,97.12
2019-03-11T08:01:10.893Z,97.33
2019-03-11T08:02:10.863Z,97.12
2019-03-11T08:03:10.856Z,96.91
2019-03-11T08:04:10.871Z,97.01
2019-03-11T08:05:10.830Z,97.33
2019-03-11T08:06:18.575Z,97.12
2019-03-11T08:07:11.803Z,97.01
2019-03-11T08:08:10.927Z,97.01
2019-03-11T08:09:10.800Z,96.49
2019-03-11T08:10:10.774Z,96.49
2019-03-11T08:11:10.788Z,95.97
2019-03-11T08:12:10.762Z,96.18
2019-03-11T08:13:10.748Z,95.51
2019-03-11T08:14:10.738Z,95.97
2019-03-11T08:15:10.723Z,96.66
2019-03-11T08:16:10.722Z,96.28
2019-03-11T08:17:10.719Z,96.03
2019-03-11T08:18:10.985Z,96.39
2019-03-11T08:19:10.673Z,95.62
2019-03-11T08:20:10.667Z,96.14
2019-03-11T08:21:10.659Z,95.93
2019-03-11T08:22:10.643Z,95.97
2019-03-11T08:23:10.659Z,95.30
2019-03-11T08:24:10.625Z,95.14
2019-03-11T08:25:10.626Z,94.78
2019-03-11T08:26:10.604Z,94.26
2019-03-11T08:27:10.592Z,94.78
2019-03-11T08:28:10.583Z,93.95
2019-03-11T08:29:10.596Z,94.16
2019-03-11T08:30:10.581Z,94.99
2019-03-11T08:31:10.564Z,94.32
2019-03-11T08:32:10.594Z,94.26
2019-03-11T08:33:10.549Z,94.37
2019-03-11T08:34:10.516Z,94.01
2019-03-11T08:35:10.546Z,93.54
2019-03-11T08:36:10.492Z,94.32
2019-03-11T08:37:10.488Z,94.22
2019-03-11T08:38:10.482Z,93.70
2019-03-11T08:39:10.483Z,93.39
2019-03-11T08:40:10.454Z,93.70
2019-03-11T08:41:10.489Z,93.60
2019-03-11T08:42:10.500Z,94.84
2019-03-11T08:43:10.430Z,94.74
2019-03-11T08:44:10.413Z,94.84
2019-03-11T08:45:10.406Z,94.84
2019-03-11T08:46:10.392Z,94.84
2019-03-11T08:47:10.426Z,94.84
2019-03-11T08:48:10.370Z,95.26
2019-03-11T08:49:10.374Z,96.76
2019-03-11T08:50:10.350Z,96.55
2019-03-11T08:51:10.335Z,96.45
2019-03-11T08:52:10.346Z,96.14
2019-03-11T08:53:10.323Z,96.66
2019-03-11T08:54:10.316Z,96.24
2019-03-11T08:55:10.289Z,97.17
2019-03-11T08:56:10.293Z,96.86
2019-03-11T08:57:10.284Z,96.97
2019-03-11T08:58:10.259Z,97.49
2019-03-11T08:59:10.251Z,97.38
2019-03-11T09:00:10.251Z,97.07
2019-03-11T09:01:10.221Z,97.38
2019-03-11T09:02:10.247Z,97.28
2019-03-11T09:03:10.215Z,97.07
2019-03-11T09:04:10.199Z,97.07
2019-03-11T09:05:10.206Z,97.59
2019-03-11T09:06:10.180Z,97.38
2019-03-11T09:07:10.165Z,97.80
2019-03-11T09:08:10.181Z,97.80
2019-03-11T09:09:10.139Z,97.38
2019-03-11T09:10:10.130Z,98.01
2019-03-11T09:11:10.128Z,98.32
2019-03-11T09:12:10.185Z,98.22
2019-03-11T09:13:10.101Z,98.01
2019-03-11T09:14:10.153Z,98.43
2019-03-11T09:15:10.069Z,98.32
2019-03-11T09:16:10.066Z,98.43
2019-03-11T09:17:10.063Z,98.32
2019-03-11T09:18:10.120Z,98.63
2019-03-11T09:19:10.031Z,98.32
2019-03-11T09:20:10.053Z,98.38
2019-03-11T09:21:10.015Z,98.90
2019-03-11T09:22:10.002Z,99.21
2019-03-11T09:23:10.003Z,99.21
2019-03-11T09:24:18.718Z,99.21
2019-03-11T09:25:11.015Z,97.96
2019-03-11T09:26:09.958Z,98.27
2019-03-11T09:27:09.950Z,98.17
2019-03-11T09:28:09.940Z,97.96
2019-03-11T09:29:09.934Z,98.17
2019-03-11T09:30:09.938Z,98.07
2019-03-11T09:31:09.931Z,98.17
2019-03-11T09:32:09.912Z,98.27
2019-03-11T09:33:09.890Z,98.17
2019-03-11T09:34:09.902Z,98.27
2019-03-11T09:35:09.873Z,98.07
2019-03-11T09:36:09.866Z,98.17
2019-03-11T09:37:09.860Z,97.96
2019-03-11T09:38:09.829Z,97.75
2019-03-11T09:39:09.825Z,97.75
2019-03-11T09:40:09.815Z,98.17
2019-03-11T09:41:09.817Z,98.48
2019-03-11T09:42:09.820Z,97.86
2019-03-11T09:43:09.782Z,98.27
2019-03-11T09:44:09.761Z,98.17
2019-03-11T09:45:09.752Z,98.17
2019-03-11T09:46:09.763Z,98.27
2019-03-11T09:47:09.735Z,98.48
2019-03-11T09:48:09.774Z,98.17
2019-03-11T09:49:09.711Z,98.27
2019-03-11T09:50:09.710Z,98.17
2019-03-11T09:51:09.687Z,98.32
2019-03-11T09:52:09.703Z,98.11
2019-03-11T09:53:09.684Z,98.32
2019-03-11T09:54:09.708Z,98.22
2019-03-11T09:55:09.646Z,98.22
2019-03-11T09:56:09.908Z,99.36
2019-03-11T09:57:09.629Z,99.26
2019-03-11T09:58:09.613Z,99.77
2019-03-11T09:59:09.618Z,99.99
2019-03-11T10:00:09.644Z,99.46
2019-03-11T10:01:09.585Z,99.36
2019-03-11T10:02:12.176Z,99.36
2019-03-11T10:03:09.564Z,99.62
2019-03-11T10:04:09.567Z,99.99
2019-03-11T10:05:09.549Z,99.99
2019-03-11T10:06:09.556Z,99.88
2019-03-11T10:07:09.521Z,99.99
2019-03-11T10:08:10.887Z,99.88
2019-03-11T10:09:09.521Z,99.77
2019-03-11T10:10:09.494Z,99.88
2019-03-11T10:11:09.481Z,99.77
2019-03-11T10:12:09.499Z,99.99
2019-03-11T10:13:09.450Z,99.99
2019-03-11T10:14:09.455Z,99.99
2019-03-11T10:15:09.441Z,99.99
2019-03-11T10:16:09.460Z,99.99
2019-03-11T10:17:09.433Z,99.94
2019-03-11T10:18:09.409Z,99.84
2019-03-11T10:19:09.403Z,99.99
2019-03-11T10:20:09.379Z,99.73
2019-03-11T10:21:09.380Z,99.99
2019-03-11T10:22:09.357Z,99.99
2019-03-11T10:23:09.375Z,99.94
2019-03-11T10:24:09.340Z,99.99
2019-03-11T10:25:09.328Z,99.99
2019-03-11T10:26:09.313Z,99.94
2019-03-11T10:27:09.304Z,99.58
2019-03-11T10:28:09.307Z,99.79
2019-03-11T10:29:09.280Z,99.99
2019-03-11T10:30:09.275Z,99.37
2019-03-11T10:31:09.261Z,99.95
2019-03-11T10:32:09.248Z,99.16
2019-03-11T10:33:09.265Z,98.19
2019-03-11T10:34:09.234Z,98.29
2019-03-11T10:35:30.120Z,98.08
2019-03-11T10:36:10.212Z,98.81
2019-03-11T10:37:09.194Z,98.29
2019-03-11T10:38:09.215Z,98.14
2019-03-11T10:39:09.179Z,97.83
2019-03-11T10:40:09.266Z,98.03
2019-03-11T10:41:09.153Z,98.03
2019-03-11T10:42:09.143Z,98.14
2019-03-11T10:43:09.138Z,97.72
2019-03-11T10:44:09.141Z,96.95
2019-03-11T10:45:09.109Z,97.58
2019-03-11T10:46:09.144Z,96.75
2019-03-11T10:47:09.100Z,96.33
2019-03-11T10:48:09.099Z,96.29
2019-03-11T10:49:09.066Z,96.39
2019-03-11T10:50:09.070Z,95.56
2019-03-11T10:51:09.050Z,96.24
2019-03-11T10:52:09.047Z,96.66
2019-03-11T10:53:09.067Z,96.45
2019-03-11T10:54:09.035Z,96.76
2019-03-11T10:55:09.034Z,96.24
2019-03-11T10:56:09.119Z,94.64
2019-03-11T10:57:08.990Z,94.17
2019-03-11T10:58:09.005Z,94.48
2019-03-11T10:59:08.981Z,94.27
2019-03-11T11:00:08.974Z,93.44
2019-03-11T11:01:09.866Z,93.85
2019-03-11T11:02:08.942Z,94.06
2019-03-11T11:03:08.920Z,93.75
2019-03-11T11:04:08.941Z,93.75
2019-03-11T11:05:08.920Z,94.48
2019-03-11T11:06:08.957Z,94.27
2019-03-11T11:07:08.877Z,94.58
2019-03-11T11:08:08.898Z,94.48
2019-03-11T11:09:08.880Z,94.68
2019-03-11T11:10:08.869Z,95.10
2019-03-11T11:11:08.841Z,94.68
2019-03-11T11:12:08.829Z,94.68
2019-03-11T11:13:08.823Z,95.20
2019-03-11T11:14:08.836Z,94.68
2019-03-11T11:15:08.795Z,95.31
2019-03-11T11:16:08.788Z,94.02
2019-03-11T11:17:08.792Z,94.12
2019-03-11T11:18:08.797Z,93.23
2019-03-11T11:19:08.806Z,94.37
2019-03-11T11:20:08.762Z,94.33
2019-03-11T11:21:08.744Z,92.88
2019-03-11T11:22:08.722Z,92.20
2019-03-11T11:23:08.731Z,92.98
2019-03-11T11:24:08.726Z,93.71
2019-03-11T11:25:08.697Z,93.19
2019-03-11T11:26:08.705Z,92.57
2019-03-11T11:27:08.673Z,93.19
2019-03-11T11:28:08.668Z,93.04
2019-03-11T11:29:08.738Z,92.94
2019-03-11T11:30:08.643Z,93.04
2019-03-11T11:31:08.650Z,93.10
2019-03-11T11:32:08.623Z,90.87
2019-03-11T11:33:08.666Z,91.14
2019-03-11T11:34:08.620Z,90.00
2019-03-11T11:35:08.583Z,90.00
2019-03-11T11:36:08.585Z,89.79
2019-03-11T11:37:08.573Z,90.77
2019-03-11T11:38:08.558Z,89.94
2019-03-11T11:39:08.610Z,91.14
2019-03-11T11:40:08.545Z,90.52
2019-03-11T11:41:08.556Z,89.38
2019-03-11T11:42:08.523Z,88.24
2019-03-11T11:43:08.500Z,88.69
2019-03-11T11:44:08.490Z,88.07
2019-03-11T11:45:08.522Z,88.28
2019-03-11T11:46:08.473Z,88.69
2019-03-11T11:47:08.465Z,89.04
2019-03-11T11:48:08.998Z,89.98
2019-03-11T11:49:08.438Z,89.98
2019-03-11T11:50:08.459Z,89.83
2019-03-11T11:51:08.452Z,89.87
2019-03-11T11:52:08.402Z,90.19
2019-03-11T11:53:08.396Z,90.25
2019-03-11T11:54:08.388Z,89.62
2019-03-11T11:55:08.407Z,90.14
2019-03-11T11:56:08.367Z,89.87
2019-03-11T11:57:08.372Z,89.15
2019-03-11T11:58:08.369Z,87.80
2019-03-11T11:59:08.349Z,87.55
2019-03-11T12:00:08.333Z,88.79
2019-03-11T12:01:08.310Z,88.69
2019-03-11T12:02:08.328Z,88.28
2019-03-11T12:03:08.334Z,87.55
2019-03-11T12:04:08.306Z,87.76
2019-03-11T12:05:08.322Z,89.73
2019-03-11T12:06:08.265Z,89.11
2019-03-11T12:07:08.253Z,88.11
2019-03-11T12:08:08.292Z,87.45
2019-03-11T12:09:08.266Z,88.42
2019-03-11T12:10:08.222Z,88.69
2019-03-11T12:11:08.225Z,89.52
2019-03-11T12:12:08.403Z,88.94
2019-03-11T12:13:08.206Z,87.59
2019-03-11T12:14:08.174Z,87.14
2019-03-11T12:15:08.164Z,87.76
2019-03-11T12:16:08.158Z,87.87
2019-03-11T12:17:08.154Z,87.14
2019-03-11T12:18:08.156Z,86.83
2019-03-11T12:19:08.220Z,87.04
2019-03-11T12:20:08.120Z,86.10
2019-03-11T12:21:08.106Z,86.79
2019-03-11T12:22:08.119Z,85.96
2019-03-11T12:23:08.085Z,86.07
2019-03-11T12:24:08.103Z,86.07
2019-03-11T12:25:08.077Z,85.86
2019-03-11T12:26:08.079Z,85.96
2019-03-11T12:27:08.051Z,84.20
2019-03-11T12:28:08.027Z,84.30
2019-03-11T12:29:08.024Z,84.92
2019-03-11T12:30:08.232Z,83.89
2019-03-11T12:31:08.051Z,84.20
2019-03-11T12:32:07.989Z,84.58
2019-03-11T12:33:07.972Z,83.37
2019-03-11T12:34:07.975Z,84.41
2019-03-11T12:35:07.984Z,84.27
2019-03-11T12:36:07.947Z,84.82
2019-03-11T12:37:07.975Z,85.34
2019-03-11T12:38:07.925Z,83.44
2019-03-11T12:39:07.985Z,83.47
2019-03-11T12:40:07.904Z,83.85
2019-03-11T12:41:07.922Z,84.27
2019-03-11T12:42:07.924Z,83.44
2019-03-11T12:43:07.872Z,83.95
2019-03-11T12:44:07.865Z,84.09
2019-03-11T12:45:07.874Z,84.16
2019-03-11T12:46:07.858Z,84.61
2019-03-11T12:47:07.853Z,84.20
2019-03-11T12:48:07.839Z,84.51
2019-03-11T12:49:07.829Z,86.07
2019-03-11T12:50:07.804Z,85.82
2019-03-11T12:51:07.791Z,85.71
2019-03-11T12:52:07.795Z,86.02